createdAt,value
2018-09-27T00:00:29.922Z,12.93
2018-09-27T00:02:32.163Z,22.33
2018-09-27T00:04:34.331Z,11.53
2018-09-27T00:06:36.471Z,16.63
2018-09-27T00:08:38.641Z,11.57
2018-09-27T00:10:40.844Z,11.23
2018-09-27T00:12:43.085Z,14.30
2018-09-27T00:14:45.295Z,15.67
2018-09-27T00:16:47.503Z,15.93
2018-09-27T00:18:49.690Z,11.27
2018-09-27T00:20:51.891Z,8.77
2018-09-27T00:22:54.010Z,14.23
2018-09-27T00:24:56.137Z,14.10
2018-09-27T00:26:58.318Z,9.70
2018-09-27T00:29:00.498Z,18.20
2018-09-27T00:31:02.650Z,15.90
2018-09-27T00:33:04.866Z,9.20
2018-09-27T00:35:07.004Z,12.30
2018-09-27T00:37:09.188Z,13.87
2018-09-27T00:39:12.629Z,10.93
2018-09-27T00:41:14.773Z,14.53
2018-09-27T00:43:16.939Z,13.70
2018-09-27T00:45:19.062Z,12.93
2018-09-27T00:47:21.242Z,8.73
2018-09-27T00:49:23.413Z,9.73
2018-09-27T00:51:25.622Z,17.23
2018-09-27T00:53:27.813Z,13.60
2018-09-27T00:55:29.954Z,11.17
2018-09-27T00:57:32.100Z,12.60
2018-09-27T00:59:34.256Z,10.50
2018-09-27T01:01:36.421Z,12.00
2018-09-27T01:03:38.540Z,13.50
2018-09-27T01:05:40.703Z,12.83
2018-09-27T01:07:42.885Z,10.37
2018-09-27T01:09:45.029Z,17.40
2018-09-27T01:11:47.150Z,14.40
2018-09-27T01:13:49.303Z,14.90
2018-09-27T01:15:51.421Z,13.43
2018-09-27T01:17:53.627Z,16.30
2018-09-27T01:19:55.758Z,13.20
2018-09-27T01:21:57.923Z,12.00
2018-09-27T01:24:00.078Z,15.73
2018-09-27T01:26:02.246Z,12.00
2018-09-27T01:28:04.386Z,17.50
2018-09-27T01:30:06.640Z,15.10
2018-09-27T01:32:08.755Z,14.37
2018-09-27T01:34:10.918Z,13.83
2018-09-27T01:36:13.090Z,10.67
2018-09-27T01:38:15.273Z,13.30
2018-09-27T01:40:17.405Z,18.23
2018-09-27T01:42:19.518Z,25.90
2018-09-27T01:44:21.672Z,13.93
2018-09-27T01:46:23.836Z,12.80
2018-09-27T01:48:25.991Z,17.50
2018-09-27T01:50:28.126Z,14.47
2018-09-27T01:52:30.299Z,12.13
2018-09-27T01:54:32.450Z,11.90
2018-09-27T01:56:34.582Z,23.13
2018-09-27T01:58:36.798Z,21.63
2018-09-27T02:00:39.004Z,10.60
2018-09-27T02:02:41.310Z,14.20
2018-09-27T02:04:43.422Z,13.13
2018-09-27T02:06:45.518Z,14.87
2018-09-27T02:08:47.669Z,10.30
2018-09-27T02:11:14.003Z,24.83
2018-09-27T02:13:16.174Z,19.50
2018-09-27T02:15:18.414Z,20.07
2018-09-27T02:17:20.601Z,15.30
2018-09-27T02:19:22.753Z,13.90
2018-09-27T02:21:24.894Z,20.60
2018-09-27T02:23:27.010Z,16.27
2018-09-27T02:25:29.106Z,20.33
2018-09-27T02:27:31.193Z,18.17
2018-09-27T02:29:33.387Z,18.27
2018-09-27T02:31:35.608Z,14.63
2018-09-27T02:33:37.794Z,14.37
2018-09-27T02:35:39.987Z,14.53
2018-09-27T02:37:42.265Z,13.87
2018-09-27T02:39:44.452Z,17.93
2018-09-27T02:41:46.602Z,18.67
2018-09-27T02:43:48.875Z,12.87
2018-09-27T02:45:51.123Z,15.07
2018-09-27T02:47:53.365Z,17.43
2018-09-27T02:49:55.562Z,18.10
2018-09-27T02:51:57.747Z,15.00
2018-09-27T02:53:59.915Z,16.87
2018-09-27T02:56:02.117Z,13.30
2018-09-27T02:58:04.262Z,15.27
2018-09-27T03:00:06.514Z,19.60
2018-09-27T03:02:08.663Z,23.87
2018-09-27T03:04:10.875Z,14.00
2018-09-27T03:06:13.005Z,23.70
2018-09-27T03:08:15.160Z,16.60
2018-09-27T03:10:17.314Z,15.33
2018-09-27T03:12:19.563Z,14.40
2018-09-27T03:14:21.723Z,18.30
2018-09-27T03:16:23.914Z,24.40
2018-09-27T03:18:26.088Z,16.47
2018-09-27T03:20:28.283Z,17.53
2018-09-27T03:22:30.470Z,17.17
2018-09-27T03:24:32.657Z,16.70
2018-09-27T03:26:34.886Z,15.93
2018-09-27T03:28:37.067Z,15.17
2018-09-27T03:30:39.263Z,19.57
2018-09-27T03:32:41.423Z,26.70
2018-09-27T03:34:43.608Z,19.93
2018-09-27T03:36:45.824Z,17.53
2018-09-27T03:38:48.016Z,20.13
2018-09-27T03:40:50.200Z,15.97
2018-09-27T03:42:52.430Z,17.97
2018-09-27T03:44:54.585Z,18.47
2018-09-27T03:46:56.766Z,18.50
2018-09-27T03:48:58.931Z,17.23
2018-09-27T03:51:01.103Z,16.60
2018-09-27T03:53:03.279Z,18.53
2018-09-27T03:55:05.508Z,18.33
2018-09-27T03:57:07.651Z,18.93
2018-09-27T03:59:09.830Z,18.00
2018-09-27T04:01:11.993Z,27.63
2018-09-27T04:03:14.194Z,21.20
2018-09-27T04:05:16.358Z,27.33
2018-09-27T04:07:18.612Z,20.87
2018-09-27T04:09:20.791Z,19.33
2018-09-27T04:11:22.967Z,16.57
2018-09-27T04:13:25.128Z,16.87
2018-09-27T04:15:27.323Z,19.23
2018-09-27T04:17:29.470Z,22.23
2018-09-27T04:19:31.641Z,18.30
2018-09-27T04:21:33.906Z,20.53
2018-09-27T04:23:36.061Z,18.23
2018-09-27T04:25:38.316Z,16.10
2018-09-27T04:27:40.551Z,18.70
2018-09-27T04:29:42.687Z,13.50
2018-09-27T04:31:44.856Z,19.80
2018-09-27T04:33:47.604Z,14.53
2018-09-27T04:35:49.783Z,18.47
2018-09-27T04:37:51.974Z,20.97
2018-09-27T04:39:54.228Z,18.00
2018-09-27T04:41:56.374Z,19.60
2018-09-27T04:43:58.587Z,27.37
2018-09-27T04:46:00.752Z,17.87
2018-09-27T04:48:02.942Z,20.63
2018-09-27T04:50:05.130Z,26.40
2018-09-27T04:52:07.318Z,25.70
2018-09-27T04:54:09.484Z,22.53
2018-09-27T04:56:11.674Z,17.73
2018-09-27T04:58:14.327Z,18.90
2018-09-27T05:00:16.473Z,22.40
2018-09-27T05:02:18.638Z,23.37
2018-09-27T05:04:20.798Z,20.50
2018-09-27T05:06:22.986Z,20.00
2018-09-27T05:08:25.130Z,16.83
2018-09-27T05:10:27.324Z,20.13
2018-09-27T05:12:29.520Z,14.97
2018-09-27T05:14:31.690Z,18.33
2018-09-27T05:16:33.821Z,18.77
2018-09-27T05:18:35.977Z,18.33
2018-09-27T05:20:38.185Z,20.87
2018-09-27T05:22:40.362Z,25.20
2018-09-27T05:24:42.518Z,16.77
2018-09-27T05:26:44.670Z,19.53
2018-09-27T05:28:46.819Z,21.93
2018-09-27T05:30:48.978Z,22.43
2018-09-27T05:32:51.142Z,20.20
2018-09-27T05:34:53.305Z,17.60
2018-09-27T05:36:55.519Z,17.77
2018-09-27T05:38:58.389Z,17.87
2018-09-27T05:41:00.519Z,17.43
2018-09-27T05:43:02.694Z,24.40
2018-09-27T05:45:05.546Z,20.03
2018-09-27T05:47:08.019Z,22.00
2018-09-27T05:49:10.965Z,18.83
2018-09-27T05:51:13.357Z,23.20
2018-09-27T05:53:15.735Z,20.63
2018-09-27T05:55:17.899Z,20.73
2018-09-27T05:57:20.377Z,20.83
2018-09-27T05:59:22.587Z,27.30
2018-09-27T06:01:24.706Z,15.20
2018-09-27T06:03:26.869Z,19.43
2018-09-27T06:05:29.604Z,27.20
2018-09-27T06:07:31.677Z,23.83
2018-09-27T06:09:33.838Z,25.60
2018-09-27T06:11:35.852Z,19.83
2018-09-27T06:13:39.234Z,19.40
2018-09-27T06:15:41.480Z,26.10
2018-09-27T06:17:43.700Z,14.43
2018-09-27T06:19:45.772Z,21.43
2018-09-27T06:21:47.843Z,19.77
2018-09-27T06:23:50.063Z,22.93
2018-09-27T06:25:52.306Z,14.47
2018-09-27T06:27:54.431Z,17.03
2018-09-27T06:29:56.498Z,26.17
2018-09-27T06:31:58.674Z,21.73
2018-09-27T06:34:00.770Z,16.77
2018-09-27T06:36:03.014Z,17.43
2018-09-27T06:38:05.203Z,22.50
2018-09-27T06:40:07.275Z,25.57
2018-09-27T06:42:09.353Z,19.20
2018-09-27T06:44:11.426Z,17.97
2018-09-27T06:46:13.506Z,20.00
2018-09-27T06:48:15.664Z,17.80
2018-09-27T06:50:17.725Z,20.33
2018-09-27T06:52:19.796Z,17.23
2018-09-27T06:54:21.889Z,18.43
2018-09-27T06:56:24.009Z,20.20
2018-09-27T06:58:26.047Z,24.13
2018-09-27T07:00:28.206Z,15.00
2018-09-27T07:02:30.292Z,28.13
2018-09-27T07:04:32.378Z,19.27
2018-09-27T07:06:34.465Z,17.93
2018-09-27T07:08:36.555Z,22.07
2018-09-27T07:10:38.647Z,19.60
2018-09-27T07:12:40.729Z,15.80
2018-09-27T07:14:42.862Z,17.63
2018-09-27T07:16:44.879Z,19.23
2018-09-27T07:18:47.008Z,19.63
2018-09-27T07:20:49.105Z,17.27
2018-09-27T07:22:51.168Z,15.93
2018-09-27T07:24:53.238Z,27.53
2018-09-27T07:26:55.308Z,21.03
2018-09-27T07:29:05.118Z,21.70
2018-09-27T07:31:07.269Z,21.37
2018-09-27T07:33:09.295Z,16.53
2018-09-27T07:35:11.357Z,23.63
2018-09-27T07:37:13.431Z,20.60
2018-09-27T07:39:15.548Z,21.47
2018-09-27T07:41:17.611Z,19.17
2018-09-27T07:43:19.694Z,16.20
2018-09-27T07:45:21.755Z,22.97
2018-09-27T07:47:23.811Z,22.90
2018-09-27T07:49:46.142Z,18.17
2018-09-27T07:51:48.219Z,28.43
2018-09-27T07:53:50.321Z,21.33
2018-09-27T07:55:52.438Z,17.63
2018-09-27T07:57:54.554Z,21.30
2018-09-27T07:59:57.638Z,22.30
2018-09-27T08:01:59.689Z,23.90
2018-09-27T08:04:01.845Z,23.77
2018-09-27T08:06:03.986Z,18.83
2018-09-27T08:08:06.358Z,23.70
2018-09-27T08:10:08.502Z,21.23
2018-09-27T08:12:31.074Z,21.50
2018-09-27T08:14:33.313Z,25.60
2018-09-27T08:16:35.510Z,25.07
2018-09-27T08:18:37.729Z,22.67
2018-09-27T10:08:40.843Z,12.57
2018-09-27T10:10:44.243Z,11.43
2018-09-27T10:12:47.107Z,9.27
2018-09-27T10:14:52.144Z,12.60
2018-09-27T10:16:55.102Z,12.50
2018-09-27T10:18:57.706Z,11.23
2018-09-27T10:21:01.204Z,10.63
2018-09-27T10:23:04.357Z,13.50
2018-09-27T10:25:07.603Z,9.77
2018-09-27T10:27:11.166Z,14.80
2018-09-27T10:29:14.276Z,13.23
2018-09-27T10:31:18.218Z,8.27
2018-09-27T10:33:21.568Z,11.93
2018-09-27T10:35:24.050Z,13.50
2018-09-27T10:37:32.350Z,9.63
2018-09-27T10:39:34.740Z,9.50
2018-09-27T10:41:37.131Z,8.70
2018-09-27T10:43:39.662Z,8.20
2018-09-27T10:45:41.979Z,8.40
2018-09-27T10:47:44.330Z,12.07
2018-09-27T10:49:46.706Z,15.43
2018-09-27T10:51:49.047Z,6.20
2018-09-27T10:53:51.381Z,6.97
2018-09-27T10:55:53.782Z,6.60
2018-09-27T10:57:56.356Z,8.40
2018-09-27T10:59:58.690Z,13.70
2018-09-27T11:02:01.098Z,11.37
2018-09-27T11:04:03.706Z,12.80
2018-09-27T11:06:09.193Z,12.37
2018-09-27T11:08:20.898Z,12.43
2018-09-27T11:10:35.893Z,9.37
2018-09-27T11:12:42.394Z,12.80
2018-09-27T11:14:47.014Z,7.63
2018-09-27T11:16:52.704Z,10.73
2018-09-27T11:18:59.839Z,7.93
2018-09-27T11:21:05.104Z,16.67
2018-09-27T11:23:08.174Z,10.03
2018-09-27T11:25:12.302Z,6.40
2018-09-27T11:27:15.199Z,8.80
2018-09-27T11:29:23.867Z,9.17
2018-09-27T11:31:32.696Z,8.50
2018-09-27T11:33:35.347Z,8.70
2018-09-27T11:35:39.824Z,7.37
2018-09-27T11:37:42.190Z,8.13
2018-09-27T11:39:44.663Z,8.70
2018-09-27T11:41:47.182Z,6.07
2018-09-27T11:43:49.577Z,8.93
2018-09-27T11:45:52.862Z,9.57
2018-09-27T11:47:55.805Z,6.60
2018-09-27T11:49:58.487Z,6.73
2018-09-27T11:52:00.887Z,11.67
2018-09-27T11:54:03.923Z,4.83
2018-09-27T11:56:08.484Z,7.00
2018-09-27T11:58:14.267Z,7.87
2018-09-27T12:00:18.107Z,5.10
2018-09-27T15:09:06.040Z,7.33
2018-09-27T15:11:08.179Z,5.67
2018-09-27T15:13:10.415Z,5.20
2018-09-27T15:15:12.607Z,11.73
2018-09-27T15:17:14.781Z,8.20
2018-09-27T15:19:17.998Z,4.17
2018-09-27T15:21:20.206Z,3.53
2018-09-27T15:23:22.406Z,7.67
2018-09-27T15:25:24.559Z,5.77
2018-09-27T15:27:26.784Z,4.63
2018-09-27T15:29:28.992Z,9.60
2018-09-27T15:31:31.480Z,4.17
2018-09-27T15:33:33.720Z,8.20
2018-09-27T15:35:35.906Z,4.27
2018-09-27T15:37:38.055Z,6.70
2018-09-27T15:39:40.292Z,7.40
2018-09-27T15:41:42.518Z,17.43
2018-09-27T15:43:45.036Z,6.10
2018-09-27T15:45:47.453Z,4.17
2018-09-27T15:47:49.510Z,9.43
2018-09-27T15:49:51.678Z,6.77
2018-09-27T15:51:53.879Z,6.97
2018-09-27T15:53:56.064Z,6.53
2018-09-27T15:55:58.243Z,6.73
2018-09-27T15:58:00.335Z,7.63
2018-09-27T16:00:02.544Z,5.93
2018-09-27T16:02:04.801Z,6.43
2018-09-27T16:04:06.999Z,6.33
2018-09-27T16:06:09.247Z,8.23
2018-09-27T16:08:11.446Z,7.57
2018-09-27T16:10:13.677Z,7.23
2018-09-27T16:12:15.877Z,7.60
2018-09-27T16:14:18.078Z,3.87
2018-09-27T16:16:20.327Z,5.23
2018-09-27T16:18:22.543Z,4.43
2018-09-27T16:20:24.751Z,5.53
2018-09-27T16:22:32.733Z,13.73
2018-09-27T16:24:34.886Z,5.00
2018-09-27T16:26:37.092Z,9.63
2018-09-27T16:28:41.309Z,4.70
2018-09-27T16:30:43.546Z,7.93
2018-09-27T16:32:45.723Z,5.97
2018-09-27T16:34:47.906Z,4.90
2018-09-27T16:36:50.617Z,9.07
2018-09-27T16:38:52.750Z,5.60
2018-09-27T16:40:54.922Z,8.53
2018-09-27T16:42:57.226Z,9.40
2018-09-27T16:44:59.390Z,7.17
2018-09-27T16:47:01.594Z,5.90
2018-09-27T16:49:03.902Z,8.47
2018-09-27T16:51:06.031Z,8.40
2018-09-27T16:53:08.279Z,9.70
2018-09-27T16:55:10.444Z,9.97
2018-09-27T16:57:12.606Z,5.60
2018-09-27T16:59:14.742Z,4.57
2018-09-27T17:01:16.942Z,6.37
2018-09-27T17:03:19.264Z,9.73
2018-09-27T17:05:21.457Z,8.00
2018-09-27T17:07:23.677Z,10.17
2018-09-27T17:09:25.842Z,3.83
2018-09-27T17:11:28.068Z,4.93
2018-09-27T17:13:30.275Z,9.23
2018-09-27T17:15:32.486Z,5.73
2018-09-27T17:17:34.722Z,9.30
2018-09-27T17:19:36.910Z,6.70
2018-09-27T17:21:39.235Z,11.10
2018-09-27T17:23:41.494Z,4.50
2018-09-27T17:25:43.711Z,5.13
2018-09-27T17:27:45.927Z,6.27
2018-09-27T17:29:48.163Z,4.20
2018-09-27T17:31:50.364Z,5.83
2018-09-27T17:33:52.542Z,4.93
2018-09-27T17:35:54.750Z,7.50
2018-09-27T17:37:56.990Z,7.10
2018-09-27T17:39:59.163Z,5.20
2018-09-27T17:42:01.338Z,8.20
2018-09-27T17:44:03.494Z,3.20
2018-09-27T17:46:05.781Z,3.80
2018-09-27T17:48:07.966Z,6.37
2018-09-27T17:50:10.150Z,10.20
2018-09-27T17:52:12.352Z,8.53
2018-09-27T17:54:14.634Z,8.90
2018-09-27T17:56:17.030Z,6.47
2018-09-27T17:58:19.237Z,7.53
2018-09-27T18:00:21.422Z,5.80
2018-09-27T18:02:24.263Z,7.60
2018-09-27T18:04:27.724Z,5.30
2018-09-27T18:06:30.119Z,14.97
2018-09-27T18:08:32.314Z,12.00
2018-09-27T18:10:34.767Z,11.00
2018-09-27T18:12:37.104Z,7.73
2018-09-27T18:14:39.498Z,7.30
2018-09-27T18:16:41.974Z,4.60
2018-09-27T18:18:44.274Z,10.33
2018-09-27T18:20:46.572Z,14.60
2018-09-27T18:22:48.839Z,11.23
2018-09-27T18:24:51.219Z,7.57
2018-09-27T18:26:53.764Z,14.27
2018-09-27T18:28:56.111Z,6.13
2018-09-27T18:30:58.598Z,6.20
2018-09-27T18:33:00.879Z,7.50
2018-09-27T18:35:03.270Z,10.43
2018-09-27T18:37:05.692Z,8.03
2018-09-27T18:39:09.587Z,17.70
2018-09-27T18:41:11.967Z,5.37
2018-09-27T18:43:14.611Z,11.13
2018-09-27T18:45:16.710Z,6.83
2018-09-27T18:47:18.988Z,6.73
2018-09-27T18:49:21.327Z,7.40
2018-09-27T18:51:23.619Z,7.33
2018-09-27T18:53:25.966Z,5.40
2018-09-27T18:55:28.214Z,13.47
2018-09-27T18:57:30.578Z,16.10
2018-09-27T18:59:32.712Z,8.83
2018-09-27T19:01:35.069Z,8.30
2018-09-27T19:03:37.308Z,6.17
2018-09-27T19:05:39.665Z,11.53
2018-09-27T19:07:42.023Z,8.17
2018-09-27T19:09:45.316Z,6.40
2018-09-27T19:11:47.591Z,20.97
2018-09-27T19:13:49.853Z,5.47
2018-09-27T19:15:52.277Z,8.53
2018-09-27T19:17:54.550Z,8.50
2018-09-27T19:19:56.983Z,23.83
2018-09-27T19:21:59.398Z,26.70
2018-09-27T19:24:01.775Z,15.00
2018-09-27T19:26:04.025Z,16.37
2018-09-27T19:28:09.693Z,31.47
2018-09-27T19:30:11.957Z,16.03
2018-09-27T19:32:14.338Z,10.70
2018-09-27T19:34:16.775Z,10.40
2018-09-27T19:36:19.080Z,15.93
2018-09-27T19:38:21.450Z,8.73
2018-09-27T19:40:24.759Z,21.70
2018-09-27T19:42:27.074Z,9.47
2018-09-27T19:44:29.239Z,13.90
2018-09-27T19:46:31.558Z,16.70
2018-09-27T19:48:33.860Z,16.40
2018-09-27T19:50:36.034Z,25.93
2018-09-27T19:52:38.253Z,14.87
2018-09-27T19:54:40.602Z,12.20
2018-09-27T19:56:42.863Z,12.17
2018-09-27T19:58:45.111Z,14.03
2018-09-27T20:00:47.319Z,16.23
2018-09-27T20:02:49.569Z,15.90
2018-09-27T20:04:51.784Z,23.70
2018-09-27T20:06:54.163Z,9.10
2018-09-27T20:08:56.500Z,9.97
2018-09-27T20:10:58.731Z,14.60
2018-09-27T20:13:01.678Z,11.50
2018-09-27T20:15:04.010Z,18.07
2018-09-27T20:17:06.183Z,10.67
2018-09-27T20:19:08.934Z,16.30
